createdAt,value
2019-05-21T00:00:20.543Z,99.90
2019-05-21T00:02:49.139Z,99.90
2019-05-21T00:05:17.778Z,99.90
2019-05-21T00:07:46.454Z,99.90
2019-05-21T00:10:15.124Z,99.90
2019-05-21T00:12:43.741Z,99.90
2019-05-21T00:15:12.380Z,99.90
2019-05-21T00:17:41.022Z,99.90
2019-05-21T00:20:09.929Z,99.90
2019-05-21T00:22:38.670Z,99.90
2019-05-21T00:25:07.971Z,99.90
2019-05-21T00:27:36.554Z,99.90
2019-05-21T00:30:41.777Z,99.90
2019-05-21T00:33:46.591Z,99.90
2019-05-21T00:36:53.488Z,99.90
2019-05-21T00:39:59.080Z,99.90
2019-05-21T00:42:30.963Z,99.90
2019-05-21T00:44:59.550Z,99.90
2019-05-21T00:47:28.184Z,99.90
2019-05-21T00:49:56.840Z,99.90
2019-05-21T00:52:25.487Z,99.90
2019-05-21T00:54:54.436Z,99.90
2019-05-21T00:57:23.021Z,99.90
2019-05-21T00:59:51.580Z,99.90
2019-05-21T01:02:20.191Z,99.90
2019-05-21T01:05:00.261Z,99.90
2019-05-21T01:07:19.370Z,99.90
2019-05-21T01:09:47.932Z,99.90
2019-05-21T01:12:16.541Z,99.90
2019-05-21T01:14:45.171Z,99.90
2019-05-21T01:17:13.772Z,99.90
2019-05-21T01:19:42.337Z,99.90
2019-05-21T01:22:10.971Z,99.90
2019-05-21T01:24:39.495Z,99.90
2019-05-21T01:27:08.096Z,99.90
2019-05-21T01:29:36.660Z,99.90
2019-05-21T01:32:05.323Z,99.90
2019-05-21T01:34:34.132Z,99.90
2019-05-21T01:37:03.031Z,99.90
2019-05-21T01:39:31.577Z,99.90
2019-05-21T01:42:00.181Z,99.90
2019-05-21T01:44:28.751Z,99.90
2019-05-21T01:46:57.347Z,99.90
2019-05-21T01:49:25.920Z,99.90
2019-05-21T01:51:54.518Z,99.90
2019-05-21T01:54:23.458Z,99.90
2019-05-21T01:56:52.062Z,99.90
2019-05-21T01:59:20.696Z,99.90
2019-05-21T02:01:49.292Z,99.90
2019-05-21T02:04:18.227Z,99.90
2019-05-21T02:06:49.285Z,99.90
2019-05-21T02:09:17.783Z,99.90
2019-05-21T02:11:46.370Z,99.90
2019-05-21T02:14:14.945Z,99.90
2019-05-21T02:16:43.535Z,99.90
2019-05-21T02:19:12.112Z,99.90
2019-05-21T02:21:40.683Z,99.90
2019-05-21T02:24:09.612Z,99.90
2019-05-21T02:26:38.224Z,99.90
2019-05-21T02:29:06.806Z,99.90
2019-05-21T02:31:35.383Z,99.90
2019-05-21T02:34:04.039Z,99.90
2019-05-21T02:36:32.616Z,99.90
2019-05-21T02:39:01.209Z,99.90
2019-05-21T02:41:29.776Z,99.90
2019-05-21T02:43:58.376Z,99.90
2019-05-21T02:46:27.007Z,99.90
2019-05-21T02:48:55.607Z,99.90
2019-05-21T02:51:24.644Z,99.90
2019-05-21T02:53:53.351Z,99.90
2019-05-21T02:56:21.998Z,99.90
2019-05-21T02:58:50.653Z,99.90
2019-05-21T03:01:20.872Z,99.90
2019-05-21T03:03:50.019Z,99.90
2019-05-21T03:06:18.658Z,99.90
2019-05-21T03:08:47.267Z,99.90
2019-05-21T03:11:16.286Z,99.90
2019-05-21T03:13:44.941Z,99.90
2019-05-21T03:16:13.531Z,99.90
2019-05-21T03:18:42.172Z,99.90
2019-05-21T03:21:10.805Z,99.90
2019-05-21T03:23:39.413Z,99.90
2019-05-21T03:26:08.109Z,99.90
2019-05-21T03:28:36.718Z,99.90
2019-05-21T03:31:05.764Z,99.90
2019-05-21T03:33:34.325Z,99.90
2019-05-21T03:36:02.987Z,99.90
2019-05-21T03:38:31.546Z,99.90
2019-05-21T03:41:00.137Z,99.90
2019-05-21T03:43:28.778Z,99.90
2019-05-21T03:45:57.356Z,99.90
2019-05-21T03:48:25.932Z,99.90
2019-05-21T03:50:55.044Z,99.90
2019-05-21T03:53:23.620Z,99.90
2019-05-21T03:55:52.218Z,99.90
2019-05-21T03:58:21.061Z,99.90
2019-05-21T04:00:49.662Z,99.90
2019-05-21T04:03:18.339Z,99.90
2019-05-21T04:05:47.000Z,99.90
2019-05-21T04:08:15.636Z,99.90
2019-05-21T04:10:44.323Z,99.90
2019-05-21T04:13:12.861Z,99.90
2019-05-21T04:15:46.877Z,99.90
2019-05-21T04:18:23.093Z,99.90
2019-05-21T04:20:51.694Z,99.90
2019-05-21T04:23:20.259Z,99.90
2019-05-21T04:25:48.869Z,99.90
2019-05-21T04:28:17.516Z,99.90
2019-05-21T04:30:46.171Z,99.90
2019-05-21T04:33:14.731Z,99.90
2019-05-21T04:35:43.349Z,99.90
2019-05-21T04:38:11.949Z,99.90
2019-05-21T04:40:40.852Z,99.90
2019-05-21T04:43:09.553Z,99.90
2019-05-21T04:45:39.202Z,99.90
2019-05-21T04:48:07.785Z,99.90
2019-05-21T04:50:36.438Z,99.90
2019-05-21T04:53:05.088Z,99.90
2019-05-21T04:55:33.680Z,99.90
2019-05-21T04:58:02.261Z,99.90
2019-05-21T05:00:30.868Z,99.90
2019-05-21T05:02:59.465Z,99.90
2019-05-21T05:05:28.489Z,99.90
2019-05-21T05:07:57.098Z,99.90
2019-05-21T05:10:25.832Z,99.90
2019-05-21T05:12:54.424Z,99.90
2019-05-21T05:15:23.026Z,99.90
2019-05-21T05:17:51.627Z,99.90
2019-05-21T05:20:20.351Z,99.90
2019-05-21T05:22:49.031Z,99.90
2019-05-21T05:25:17.743Z,99.90
2019-05-21T05:27:46.339Z,99.90
2019-05-21T05:30:15.684Z,99.90
2019-05-21T05:32:44.418Z,99.90
2019-05-21T05:35:13.144Z,99.90
2019-05-21T05:37:45.312Z,99.90
2019-05-21T05:40:13.072Z,99.90
2019-05-21T05:42:41.782Z,99.90
2019-05-21T05:45:11.190Z,99.90
2019-05-21T05:47:39.855Z,99.90
2019-05-21T05:50:13.381Z,99.90
2019-05-21T05:52:42.058Z,99.90
2019-05-21T05:55:11.295Z,99.90
2019-05-21T05:57:40.074Z,99.90
2019-05-21T06:00:10.937Z,99.90
2019-05-21T06:02:39.669Z,99.90
2019-05-21T06:05:08.979Z,99.90
2019-05-21T06:07:37.643Z,99.90
2019-05-21T06:10:07.200Z,99.90
2019-05-21T06:12:35.828Z,99.90
2019-05-21T06:15:06.879Z,99.90
2019-05-21T06:17:35.839Z,99.90
2019-05-21T06:20:06.251Z,99.90
2019-05-21T06:22:34.898Z,99.90
2019-05-21T06:25:04.914Z,99.90
2019-05-21T06:27:33.610Z,99.90
2019-05-21T06:30:02.180Z,99.90
2019-05-21T06:32:30.765Z,99.90
2019-05-21T06:34:59.650Z,99.90
2019-05-21T06:37:28.306Z,99.90
2019-05-21T06:39:56.890Z,99.90
2019-05-21T06:42:25.906Z,99.90
2019-05-21T06:44:54.478Z,99.90
2019-05-21T06:47:23.065Z,99.90
2019-05-21T06:49:51.665Z,99.90
2019-05-21T06:52:20.331Z,99.90
2019-05-21T06:54:48.935Z,99.90
2019-05-21T06:57:17.510Z,99.90
2019-05-21T06:59:46.232Z,99.90
2019-05-21T07:02:14.832Z,99.90
2019-05-21T07:04:43.406Z,99.90
2019-05-21T07:07:12.082Z,99.90
2019-05-21T07:09:40.650Z,99.90
2019-05-21T07:12:09.223Z,99.90
2019-05-21T07:14:37.781Z,99.90
2019-05-21T07:17:06.358Z,99.90
2019-05-21T07:19:35.365Z,99.90
2019-05-21T07:22:12.787Z,99.90
2019-05-21T07:24:34.675Z,99.90
2019-05-21T07:27:03.377Z,99.90
2019-05-21T07:29:32.349Z,99.90
2019-05-21T07:32:01.007Z,99.90
2019-05-21T07:34:29.573Z,99.90
2019-05-21T07:36:58.150Z,99.90
2019-05-21T07:39:26.759Z,99.90
2019-05-21T07:41:55.707Z,99.90
2019-05-21T07:44:24.283Z,99.90
2019-05-21T07:46:52.939Z,99.90
2019-05-21T07:49:21.516Z,99.90
2019-05-21T07:51:50.117Z,99.90
2019-05-21T07:54:18.684Z,99.80
2019-05-21T07:56:47.336Z,99.40
2019-05-21T07:59:15.919Z,99.00
2019-05-21T08:01:44.500Z,98.70
2019-05-21T08:04:13.080Z,98.90
2019-05-21T08:06:41.855Z,99.00
2019-05-21T08:09:14.206Z,98.60
2019-05-21T08:11:40.726Z,98.30
2019-05-21T08:14:09.723Z,97.90
2019-05-21T08:16:38.376Z,97.50
2019-05-21T08:19:06.974Z,97.70
2019-05-21T08:21:35.556Z,97.90
2019-05-21T08:24:04.277Z,97.90
2019-05-21T08:26:32.999Z,97.70
2019-05-21T08:29:01.655Z,98.00
2019-05-21T08:31:30.229Z,98.00
2019-05-21T08:33:59.128Z,98.20
2019-05-21T08:36:27.755Z,98.70
2019-05-21T08:38:56.325Z,98.30
2019-05-21T08:41:24.955Z,98.30
2019-05-21T08:43:53.628Z,98.30
2019-05-21T08:46:22.239Z,98.60
2019-05-21T08:48:50.793Z,98.30
2019-05-21T08:51:19.507Z,98.40
2019-05-21T08:53:48.175Z,98.50
2019-05-21T08:56:16.756Z,98.30
2019-05-21T08:58:45.478Z,98.20
2019-05-21T09:01:14.157Z,98.90
2019-05-21T09:03:42.754Z,98.70
2019-05-21T09:06:11.606Z,98.50
2019-05-21T09:08:40.598Z,98.10
2019-05-21T09:11:09.222Z,98.10
2019-05-21T09:13:37.799Z,98.00
2019-05-21T09:16:06.522Z,97.80
2019-05-21T09:18:35.130Z,97.90
2019-05-21T09:21:03.804Z,97.70
2019-05-21T09:23:32.864Z,97.50
2019-05-21T09:26:01.432Z,97.70
2019-05-21T09:28:30.084Z,97.80
2019-05-21T09:31:01.628Z,98.10
2019-05-21T09:33:29.222Z,97.90
2019-05-21T09:35:57.886Z,97.80
2019-05-21T09:38:26.507Z,97.30
2019-05-21T09:40:55.121Z,97.70
2019-05-21T09:43:23.695Z,97.00
2019-05-21T09:45:52.301Z,96.30
2019-05-21T09:48:20.885Z,95.30
2019-05-21T09:50:49.466Z,95.00
2019-05-21T09:53:18.180Z,94.50
2019-05-21T09:55:46.750Z,94.90
2019-05-21T09:58:17.275Z,94.30
2019-05-21T10:00:50.274Z,93.30
2019-05-21T10:03:26.419Z,93.80
2019-05-21T10:05:55.044Z,93.80
2019-05-21T10:08:23.611Z,93.40
2019-05-21T10:10:52.270Z,93.50
2019-05-21T10:13:21.287Z,93.50
2019-05-21T10:15:49.860Z,93.40
2019-05-21T10:18:18.448Z,93.30
2019-05-21T10:20:47.089Z,92.80
2019-05-21T10:23:15.763Z,93.20
2019-05-21T10:25:44.726Z,93.50
2019-05-21T10:28:13.308Z,93.70
2019-05-21T10:30:42.273Z,93.70
2019-05-21T10:33:10.805Z,93.90
2019-05-21T10:35:39.474Z,93.70
2019-05-21T10:38:08.495Z,93.50
2019-05-21T10:40:37.197Z,92.60
2019-05-21T10:43:05.912Z,92.70
2019-05-21T10:45:34.484Z,92.70
2019-05-21T10:48:03.166Z,92.70
2019-05-21T10:50:32.121Z,93.00
2019-05-21T10:53:00.780Z,93.30
2019-05-21T10:55:29.455Z,93.00
2019-05-21T10:57:58.450Z,92.70
2019-05-21T11:00:28.077Z,92.40
2019-05-21T11:03:13.132Z,92.40
2019-05-21T11:05:43.605Z,92.20
2019-05-21T11:08:23.662Z,91.80
2019-05-21T11:10:42.610Z,91.90
2019-05-21T11:13:11.246Z,91.50
2019-05-21T11:15:40.247Z,91.70
2019-05-21T11:18:11.184Z,91.50
2019-05-21T11:20:39.388Z,90.60
2019-05-21T11:23:08.310Z,90.60
2019-05-21T11:25:36.950Z,90.60
2019-05-21T11:28:06.340Z,90.30
2019-05-21T11:30:35.531Z,90.10
2019-05-21T11:33:04.164Z,90.50
2019-05-21T11:35:35.772Z,90.80
2019-05-21T11:38:03.361Z,90.20
2019-05-21T11:40:32.084Z,89.50
2019-05-21T11:43:00.657Z,88.50
2019-05-21T11:45:32.658Z,87.60
2019-05-21T11:47:59.760Z,87.20
2019-05-21T11:50:28.474Z,87.60
2019-05-21T11:52:57.178Z,86.90
2019-05-21T11:55:25.925Z,87.90
2019-05-21T11:57:54.511Z,88.60
2019-05-21T12:00:25.378Z,86.60
2019-05-21T12:02:53.988Z,88.80
2019-05-21T12:05:22.953Z,86.60
2019-05-21T12:07:52.031Z,85.50
2019-05-21T12:10:20.977Z,85.40
2019-05-21T12:12:50.028Z,84.30
2019-05-21T12:15:18.912Z,86.60
2019-05-21T12:17:47.993Z,85.20
2019-05-21T12:20:35.360Z,84.00
2019-05-21T12:22:51.592Z,85.90
2019-05-21T12:25:20.293Z,84.60
2019-05-21T12:27:48.971Z,84.00
2019-05-21T12:30:19.183Z,86.10
2019-05-21T12:32:47.749Z,83.10
2019-05-21T12:35:16.585Z,83.90
2019-05-21T12:37:45.174Z,83.30
2019-05-21T12:40:14.416Z,84.80
2019-05-21T12:42:42.979Z,81.90
2019-05-21T12:45:12.260Z,82.00
2019-05-21T12:47:41.029Z,80.10
2019-05-21T12:50:10.178Z,80.70
2019-05-21T12:52:38.877Z,81.10
2019-05-21T12:55:08.041Z,79.50
2019-05-21T12:57:37.096Z,79.60
2019-05-21T13:00:13.057Z,81.20
2019-05-21T13:02:41.673Z,80.80
2019-05-21T13:05:11.666Z,80.60
2019-05-21T13:07:40.336Z,79.40
2019-05-21T13:10:09.352Z,79.20
2019-05-21T13:12:37.951Z,79.00
2019-05-21T13:15:07.849Z,77.50
2019-05-21T13:17:36.514Z,77.00
2019-05-21T13:20:08.164Z,76.30
2019-05-21T13:22:37.038Z,74.20
2019-05-21T13:25:09.105Z,73.50
2019-05-21T13:27:37.771Z,71.90
2019-05-21T13:30:07.800Z,72.00
2019-05-21T13:32:36.384Z,71.40
2019-05-21T13:35:09.526Z,70.30
2019-05-21T13:37:38.255Z,70.00
2019-05-21T13:40:08.272Z,72.10
2019-05-21T13:42:37.028Z,68.50
2019-05-21T13:45:07.551Z,64.60
2019-05-21T13:47:36.265Z,63.70
2019-05-21T13:50:07.340Z,63.80
2019-05-21T13:52:36.436Z,58.50
2019-05-21T13:55:06.798Z,55.10
2019-05-21T13:57:35.542Z,50.90
2019-05-21T14:00:07.781Z,48.10
2019-05-21T14:02:36.527Z,44.00
2019-05-21T14:05:06.175Z,43.50
2019-05-21T14:07:34.767Z,40.80
2019-05-21T14:10:15.076Z,39.80
2019-05-21T14:12:35.354Z,37.80
2019-05-21T14:15:04.763Z,36.30
2019-05-21T14:17:33.783Z,34.70
2019-05-21T14:20:02.412Z,34.40
2019-05-21T14:22:35.671Z,33.00
2019-05-21T14:25:01.601Z,31.90
2019-05-21T14:27:44.069Z,31.40
2019-05-21T14:30:01.806Z,32.70
2019-05-21T14:32:30.428Z,31.90
2019-05-21T14:35:01.578Z,32.00
2019-05-21T14:37:29.241Z,31.20
2019-05-21T14:39:57.844Z,30.90
2019-05-21T14:42:26.560Z,30.40
2019-05-21T14:44:55.286Z,31.20
2019-05-21T14:47:23.928Z,31.20
2019-05-21T14:49:52.575Z,30.90
2019-05-21T14:52:21.150Z,31.20
2019-05-21T14:54:49.729Z,31.70
2019-05-21T14:57:18.299Z,30.10
2019-05-21T14:59:46.868Z,30.80
2019-05-21T15:02:15.466Z,30.80
2019-05-21T15:04:44.291Z,30.90
2019-05-21T15:07:13.210Z,30.10
2019-05-21T15:09:41.848Z,30.80
2019-05-21T15:12:10.903Z,31.10
2019-05-21T15:14:39.781Z,31.40
2019-05-21T15:17:08.652Z,31.60
2019-05-21T15:19:37.278Z,31.60
2019-05-21T15:22:06.010Z,32.20
2019-05-21T15:24:34.596Z,31.90
2019-05-21T15:27:03.654Z,32.90
2019-05-21T15:29:32.216Z,32.90
2019-05-21T15:32:00.875Z,33.90
2019-05-21T15:34:29.515Z,34.70
2019-05-21T15:36:58.109Z,34.90
2019-05-21T15:39:26.755Z,35.80
2019-05-21T15:41:55.355Z,36.20
2019-05-21T15:44:23.898Z,35.50
2019-05-21T15:46:52.564Z,35.50
2019-05-21T15:49:34.987Z,35.80
2019-05-21T15:51:51.362Z,36.00
2019-05-21T15:54:20.050Z,35.80
2019-05-21T15:56:48.598Z,35.40
2019-05-21T15:59:17.243Z,34.50
2019-05-21T16:01:45.902Z,33.30
2019-05-21T16:04:16.554Z,33.60
2019-05-21T16:06:45.215Z,33.00
2019-05-21T16:09:14.260Z,32.50
2019-05-21T16:11:42.867Z,32.40
2019-05-21T16:14:11.517Z,32.30
2019-05-21T16:16:40.097Z,31.90
2019-05-21T16:19:08.686Z,32.80
2019-05-21T16:21:37.572Z,33.70
2019-05-21T16:24:06.238Z,32.90
2019-05-21T16:26:34.852Z,32.60
2019-05-21T16:29:03.586Z,33.60
2019-05-21T16:31:32.190Z,33.20
2019-05-21T16:34:00.761Z,32.80
2019-05-21T16:36:29.441Z,33.00
2019-05-21T16:38:58.226Z,34.00
2019-05-21T16:41:26.870Z,34.00
2019-05-21T16:43:55.528Z,34.20
2019-05-21T16:46:24.190Z,34.70
2019-05-21T16:48:52.837Z,35.10
2019-05-21T16:51:21.510Z,35.70
2019-05-21T16:53:50.064Z,36.20
2019-05-21T16:56:18.804Z,35.10
2019-05-21T16:58:47.691Z,35.40
2019-05-21T17:01:16.720Z,35.40
2019-05-21T17:03:59.013Z,35.10
2019-05-21T17:06:15.659Z,35.60
2019-05-21T17:08:44.299Z,35.30
2019-05-21T17:11:12.959Z,35.10
2019-05-21T17:13:41.673Z,34.60
2019-05-21T17:16:10.316Z,35.30
2019-05-21T17:18:38.894Z,36.00
2019-05-21T17:21:07.461Z,36.80
2019-05-21T17:23:36.047Z,38.10
2019-05-21T17:26:04.781Z,39.20
2019-05-21T17:28:33.414Z,40.80
2019-05-21T17:31:02.072Z,42.80
2019-05-21T17:33:31.056Z,45.10
2019-05-21T17:35:59.632Z,47.20
2019-05-21T17:38:28.235Z,48.00
2019-05-21T17:40:56.875Z,49.40
2019-05-21T17:43:25.511Z,50.60
2019-05-21T17:45:54.153Z,53.00
2019-05-21T17:48:22.783Z,54.50
2019-05-21T17:50:51.524Z,56.60
2019-05-21T17:53:20.059Z,58.40
2019-05-21T17:55:48.654Z,60.60
2019-05-21T17:58:17.244Z,63.10
2019-05-21T18:00:50.049Z,65.20
2019-05-21T18:03:19.152Z,69.20
2019-05-21T18:05:48.867Z,71.00
2019-05-21T18:08:18.233Z,74.50
2019-05-21T18:10:47.105Z,77.10
2019-05-21T18:13:18.177Z,79.60
2019-05-21T18:15:46.817Z,81.50
2019-05-21T18:18:15.724Z,83.60
2019-05-21T18:20:45.093Z,85.90
2019-05-21T18:23:14.005Z,88.00
2019-05-21T18:25:42.738Z,89.60
2019-05-21T18:28:11.318Z,90.40
2019-05-21T18:30:40.812Z,91.00
2019-05-21T18:33:09.713Z,91.50
2019-05-21T18:35:38.523Z,92.10
2019-05-21T18:38:07.164Z,92.50
2019-05-21T18:40:36.219Z,92.90
2019-05-21T18:43:05.164Z,93.30
2019-05-21T18:45:34.208Z,93.70
2019-05-21T18:48:02.855Z,94.00
2019-05-21T18:50:36.273Z,94.40
2019-05-21T18:53:01.887Z,94.80
2019-05-21T18:55:30.483Z,94.90
2019-05-21T18:57:59.520Z,95.00
2019-05-21T19:00:28.294Z,95.70
2019-05-21T19:02:57.232Z,96.00
2019-05-21T19:05:25.955Z,96.50
2019-05-21T19:07:54.700Z,96.70
2019-05-21T19:10:23.258Z,96.90
2019-05-21T19:12:51.936Z,97.10
2019-05-21T19:15:20.592Z,97.40
2019-05-21T19:17:50.716Z,97.90
2019-05-21T19:20:19.862Z,98.00
2019-05-21T19:22:48.760Z,98.30
2019-05-21T19:25:17.471Z,98.70
2019-05-21T19:27:46.041Z,99.00
2019-05-21T19:30:16.326Z,99.50
2019-05-21T19:32:45.858Z,99.40
2019-05-21T19:35:15.501Z,99.60
2019-05-21T19:37:44.228Z,99.90
2019-05-21T19:40:13.374Z,99.90
2019-05-21T19:42:54.349Z,99.90
2019-05-21T19:45:14.075Z,99.90
2019-05-21T19:47:42.648Z,99.90
2019-05-21T19:50:11.832Z,99.90
2019-05-21T19:52:40.383Z,99.90
2019-05-21T19:55:09.616Z,99.90
2019-05-21T19:57:39.892Z,99.90
2019-05-21T20:00:10.053Z,99.90
2019-05-21T20:02:38.920Z,99.90
2019-05-21T20:05:09.214Z,99.90
2019-05-21T20:07:38.594Z,99.90
2019-05-21T20:10:11.825Z,99.90
2019-05-21T20:12:40.867Z,99.90
2019-05-21T20:15:10.098Z,99.90
2019-05-21T20:17:40.406Z,99.90
2019-05-21T20:20:10.955Z,99.90
2019-05-21T20:22:41.021Z,99.90
2019-05-21T20:25:11.024Z,99.90
2019-05-21T20:27:39.685Z,99.90
2019-05-21T20:30:13.172Z,99.90
2019-05-21T20:32:40.886Z,99.90
2019-05-21T20:35:12.057Z,99.90
2019-05-21T20:37:41.210Z,99.90
2019-05-21T20:40:11.202Z,99.90
2019-05-21T20:42:41.150Z,99.90
2019-05-21T20:45:12.889Z,99.90
2019-05-21T20:47:41.414Z,99.90
2019-05-21T20:50:12.677Z,99.90
2019-05-21T20:52:42.102Z,99.90
2019-05-21T20:55:11.353Z,99.90
2019-05-21T20:57:40.061Z,99.90
2019-05-21T21:00:11.076Z,99.90
2019-05-21T21:02:41.671Z,99.90
2019-05-21T21:05:11.470Z,99.90
2019-05-21T21:07:40.658Z,99.90
2019-05-21T21:10:12.061Z,99.90
2019-05-21T21:12:41.370Z,99.90
2019-05-21T21:15:12.437Z,99.90
2019-05-21T21:17:41.219Z,99.90
2019-05-21T21:20:10.351Z,99.90
2019-05-21T21:22:38.999Z,99.90
2019-05-21T21:25:08.605Z,99.90
2019-05-21T21:27:37.326Z,99.90
2019-05-21T21:30:08.713Z,99.90
2019-05-21T21:32:37.769Z,99.90
2019-05-21T21:35:06.770Z,99.90
2019-05-21T21:37:35.499Z,99.90
2019-05-21T21:40:07.311Z,99.90
2019-05-21T21:42:36.104Z,99.90
2019-05-21T21:45:07.135Z,99.90
2019-05-21T21:47:36.412Z,99.90
2019-05-21T21:50:10.791Z,99.90
2019-05-21T21:52:39.578Z,99.90
2019-05-21T21:55:09.136Z,99.90
2019-05-21T21:57:37.869Z,99.90
2019-05-21T22:00:59.154Z,99.90
2019-05-21T22:03:30.770Z,99.90
2019-05-21T22:06:01.172Z,99.90
2019-05-21T22:08:31.650Z,99.90
2019-05-21T22:11:01.770Z,99.90
2019-05-21T22:13:30.693Z,99.90
2019-05-21T22:15:59.829Z,99.90
2019-05-21T22:18:29.020Z,99.90
2019-05-21T22:20:57.846Z,99.90
2019-05-21T22:23:27.842Z,99.90
2019-05-21T22:25:56.894Z,99.90
2019-05-21T22:28:25.546Z,99.90
2019-05-21T22:30:54.460Z,99.90
2019-05-21T22:33:23.442Z,99.90
2019-05-21T22:35:52.004Z,99.90
2019-05-21T22:38:20.724Z,99.90
2019-05-21T22:40:49.426Z,99.90
2019-05-21T22:43:18.157Z,99.90
2019-05-21T22:45:46.796Z,99.90
2019-05-21T22:48:15.391Z,99.90
2019-05-21T22:50:44.548Z,99.90
2019-05-21T22:53:13.126Z,99.90
2019-05-21T22:55:42.293Z,99.90
2019-05-21T22:58:11.050Z,99.90
2019-05-21T23:00:41.364Z,99.90
2019-05-21T23:03:10.090Z,99.90
2019-05-21T23:05:38.712Z,99.90
2019-05-21T23:08:09.231Z,99.90
2019-05-21T23:10:38.531Z,99.90
2019-05-21T23:13:07.175Z,99.90
2019-05-21T23:15:35.897Z,99.90
2019-05-21T23:18:05.990Z,99.90
2019-05-21T23:20:36.243Z,99.90
2019-05-21T23:23:06.150Z,99.90
2019-05-21T23:25:36.379Z,99.90
2019-05-21T23:28:06.140Z,99.90
2019-05-21T23:30:34.882Z,99.90
2019-05-21T23:33:04.656Z,99.90
2019-05-21T23:35:35.170Z,99.90
2019-05-21T23:38:03.916Z,99.90
2019-05-21T23:40:32.936Z,99.90
2019-05-21T23:43:01.571Z,99.90
2019-05-21T23:45:30.834Z,99.90
2019-05-21T23:47:59.486Z,99.90
2019-05-21T23:50:29.348Z,99.90
2019-05-21T23:52:59.741Z,99.90
2019-05-21T23:55:28.799Z,99.90
2019-05-21T23:57:57.502Z,99.90
